createdAt,value
2019-02-26T00:01:50.719Z,101623.37
2019-02-26T00:04:54.072Z,101628.20
2019-02-26T00:07:57.944Z,101618.34
2019-02-26T00:11:01.164Z,101621.48
2019-02-26T00:14:04.544Z,101619.50
2019-02-26T00:17:10.598Z,101609.44
2019-02-26T00:20:12.687Z,101600.52
2019-02-26T00:23:14.143Z,101608.92
2019-02-26T00:26:17.748Z,101604.70
2019-02-26T00:29:23.147Z,101592.09
2019-02-26T00:32:24.959Z,101596.30
2019-02-26T00:35:27.622Z,101595.23
2019-02-26T00:38:29.826Z,101591.34
2019-02-26T00:41:33.471Z,101580.52
2019-02-26T00:44:37.340Z,101569.91
2019-02-26T00:47:41.067Z,101572.20
2019-02-26T00:50:43.214Z,101565.87
2019-02-26T00:53:48.852Z,101562.08
2019-02-26T00:56:48.863Z,101556.81
2019-02-26T00:59:50.822Z,101554.72
2019-02-26T01:02:52.673Z,101541.70
2019-02-26T01:05:54.554Z,101535.17
2019-02-26T01:08:56.433Z,101537.90
2019-02-26T01:11:58.343Z,101539.56
2019-02-26T01:15:02.577Z,101531.70
2019-02-26T01:18:05.628Z,101526.23
2019-02-26T01:21:07.663Z,101528.64
2019-02-26T01:24:09.600Z,101527.11
2019-02-26T01:27:11.491Z,101529.31
2019-02-26T01:30:18.274Z,101508.14
2019-02-26T01:33:18.738Z,101495.66
2019-02-26T01:36:23.038Z,101506.82
2019-02-26T01:39:24.578Z,101499.03
2019-02-26T01:42:27.551Z,101502.09
2019-02-26T01:45:32.364Z,101497.67
2019-02-26T01:48:36.556Z,101474.06
2019-02-26T01:51:38.240Z,101480.59
2019-02-26T01:54:40.225Z,101489.08
2019-02-26T01:57:43.374Z,101484.06
2019-02-26T02:00:45.910Z,101478.90
2019-02-26T02:03:48.796Z,101464.42
2019-02-26T02:06:51.703Z,101461.92
2019-02-26T02:09:55.550Z,101460.03
2019-02-26T02:12:59.746Z,101451.84
2019-02-26T02:16:02.117Z,101461.39
2019-02-26T02:19:05.330Z,101454.33
2019-02-26T02:22:07.171Z,101464.52
2019-02-26T02:25:10.931Z,101466.51
2019-02-26T02:28:12.864Z,101469.53
2019-02-26T02:31:14.741Z,101460.81
2019-02-26T02:34:16.682Z,101449.99
2019-02-26T02:37:23.777Z,101449.05
2019-02-26T02:40:22.465Z,101445.65
2019-02-26T02:43:24.383Z,101451.59
2019-02-26T02:46:26.298Z,101449.28
2019-02-26T02:49:29.598Z,101437.83
2019-02-26T02:52:33.174Z,101439.59
2019-02-26T02:55:37.905Z,101435.23
2019-02-26T02:58:41.804Z,101418.88
2019-02-26T03:01:45.826Z,101431.06
2019-02-26T03:04:47.548Z,101428.62
2019-02-26T03:07:51.653Z,101435.92
2019-02-26T03:10:53.253Z,101435.45
2019-02-26T03:13:55.157Z,101436.31
2019-02-26T03:16:57.207Z,101438.30
2019-02-26T03:20:01.665Z,101435.80
2019-02-26T03:23:04.559Z,101417.73
2019-02-26T03:26:10.006Z,101424.63
2019-02-26T03:29:10.615Z,101410.97
2019-02-26T03:32:12.513Z,101401.53
2019-02-26T03:35:16.708Z,101403.13
2019-02-26T03:38:20.629Z,101402.22
2019-02-26T03:41:23.489Z,101401.80
2019-02-26T03:44:29.565Z,101396.58
2019-02-26T03:47:29.907Z,101407.44
2019-02-26T03:50:31.734Z,101392.73
2019-02-26T03:53:35.794Z,101390.42
2019-02-26T03:56:37.464Z,101389.21
2019-02-26T03:59:39.342Z,101398.92
2019-02-26T04:02:45.638Z,101374.01
2019-02-26T04:05:46.507Z,101368.99
2019-02-26T04:08:50.568Z,101380.66
2019-02-26T04:11:53.439Z,101384.27
2019-02-26T04:14:56.304Z,101383.81
2019-02-26T04:17:58.377Z,101377.98
2019-02-26T04:21:05.762Z,101377.00
2019-02-26T04:24:05.908Z,101368.89
2019-02-26T04:27:44.217Z,101354.03
2019-02-26T04:30:55.563Z,101369.61
2019-02-26T04:34:09.931Z,101386.55
2019-02-26T04:37:42.896Z,101385.11
2019-02-26T04:40:48.503Z,101383.58
2019-02-26T04:44:09.098Z,101365.31
2019-02-26T04:47:11.711Z,101342.98
2019-02-26T04:50:13.737Z,101329.73
2019-02-26T04:53:15.763Z,101340.37
2019-02-26T04:56:17.752Z,101332.00
2019-02-26T04:59:19.752Z,101350.34
2019-02-26T05:02:21.660Z,101346.60
2019-02-26T05:05:25.889Z,101335.30
2019-02-26T05:08:29.228Z,101335.45
2019-02-26T05:11:34.971Z,101324.80
2019-02-26T05:14:35.123Z,101331.16
2019-02-26T05:17:37.036Z,101338.11
2019-02-26T05:20:42.571Z,101356.54
2019-02-26T05:23:42.985Z,101357.81
2019-02-26T05:26:45.368Z,101357.39
2019-02-26T05:29:49.054Z,101374.02
2019-02-26T05:32:54.104Z,101397.43
2019-02-26T05:35:55.183Z,101393.58
2019-02-26T05:38:59.588Z,101389.77
2019-02-26T05:42:03.195Z,101398.20
2019-02-26T05:45:08.420Z,101395.87
2019-02-26T05:48:09.412Z,101392.47
2019-02-26T05:51:11.600Z,101394.27
2019-02-26T05:54:17.433Z,101401.39
2019-02-26T05:57:27.698Z,101405.05
2019-02-26T06:00:25.530Z,101412.80
2019-02-26T06:03:26.062Z,101419.18
2019-02-26T06:06:28.022Z,101414.97
2019-02-26T06:09:33.006Z,101433.59
2019-02-26T06:12:35.522Z,101441.32
2019-02-26T06:15:37.884Z,101457.84
2019-02-26T06:18:41.915Z,101473.08
2019-02-26T06:21:44.753Z,101469.88
2019-02-26T06:24:47.590Z,101473.58
2019-02-26T06:27:50.961Z,101475.98
2019-02-26T06:30:55.041Z,101485.62
2019-02-26T06:33:56.838Z,101474.95
2019-02-26T06:37:16.508Z,101488.34
2019-02-26T06:40:18.190Z,101484.33
2019-02-26T06:43:20.135Z,101483.17
2019-02-26T06:46:22.359Z,101480.52
2019-02-26T06:49:26.771Z,101482.96
2019-02-26T06:52:29.940Z,101479.41
2019-02-26T06:55:32.502Z,101463.95
2019-02-26T06:58:35.784Z,101466.02
2019-02-26T07:01:39.632Z,101461.00
2019-02-26T07:04:42.205Z,101453.30
2019-02-26T07:07:44.233Z,101461.74
2019-02-26T07:10:46.224Z,101457.19
2019-02-26T07:13:48.196Z,101463.00
2019-02-26T07:16:50.252Z,101463.30
2019-02-26T07:19:53.837Z,101455.64
2019-02-26T07:22:56.468Z,101472.52
2019-02-26T07:25:58.386Z,101487.81
2019-02-26T07:29:00.471Z,101478.86
2019-02-26T07:32:02.335Z,101466.41
2019-02-26T07:35:08.724Z,101459.56
2019-02-26T07:38:11.474Z,101450.42
2019-02-26T07:41:14.439Z,101460.45
2019-02-26T07:44:18.852Z,101473.59
2019-02-26T07:47:22.076Z,101483.92
2019-02-26T07:50:24.110Z,101480.95
2019-02-26T07:53:26.275Z,101464.80
2019-02-26T07:56:32.083Z,101462.45
2019-02-26T07:59:34.415Z,101459.41
2019-02-26T08:02:37.265Z,101468.91
2019-02-26T08:05:39.349Z,101473.66
2019-02-26T08:08:42.127Z,101474.56
2019-02-26T08:11:48.506Z,101480.75
2019-02-26T08:14:50.106Z,101486.17
2019-02-26T08:17:56.006Z,101495.38
2019-02-26T08:20:57.969Z,101488.70
2019-02-26T08:24:00.427Z,101499.06
2019-02-26T08:27:03.411Z,101489.78
2019-02-26T08:30:14.486Z,101479.18
2019-02-26T08:33:16.243Z,101474.37
2019-02-26T08:36:18.228Z,101487.72
2019-02-26T08:39:20.134Z,101494.59
2019-02-26T08:42:22.824Z,101501.45
2019-02-26T08:45:25.757Z,101511.79
2019-02-26T08:48:28.006Z,101508.40
2019-02-26T08:51:29.988Z,101509.37
2019-02-26T08:54:33.334Z,101509.23
2019-02-26T08:57:35.865Z,101503.86
2019-02-26T09:00:37.757Z,101507.77
2019-02-26T09:03:40.961Z,101497.59
2019-02-26T09:06:43.089Z,101494.92
2019-02-26T09:09:47.537Z,101509.59
2019-02-26T09:12:51.707Z,101508.52
2019-02-26T09:15:52.841Z,101506.43
2019-02-26T09:18:54.693Z,101506.21
2019-02-26T09:21:56.677Z,101508.05
2019-02-26T09:24:59.913Z,101520.30
2019-02-26T09:28:02.662Z,101533.19
2019-02-26T09:31:06.637Z,101534.42
2019-02-26T09:34:08.502Z,101537.63
2019-02-26T09:37:10.464Z,101527.12
2019-02-26T09:40:20.151Z,101520.05
2019-02-26T09:43:22.636Z,101526.09
2019-02-26T09:46:25.437Z,101516.06
2019-02-26T09:49:30.791Z,101525.27
2019-02-26T09:52:32.738Z,101528.95
2019-02-26T09:55:37.677Z,101536.70
2019-02-26T09:58:41.180Z,101541.70
2019-02-26T10:01:43.928Z,101536.00
2019-02-26T10:04:47.779Z,101533.03
2019-02-26T10:07:52.333Z,101534.90
2019-02-26T10:10:54.999Z,101529.80
2019-02-26T10:13:57.544Z,101521.74
2019-02-26T10:16:59.462Z,101529.19
2019-02-26T10:20:02.325Z,101527.38
2019-02-26T10:23:06.390Z,101529.78
2019-02-26T10:26:10.695Z,101529.02
2019-02-26T10:29:12.803Z,101526.71
2019-02-26T10:32:14.738Z,101521.23
2019-02-26T10:35:22.608Z,101523.19
2019-02-26T10:38:28.888Z,101514.12
2019-02-26T10:41:28.694Z,101509.55
2019-02-26T10:44:30.622Z,101508.78
2019-02-26T10:47:34.680Z,101507.20
2019-02-26T10:50:39.314Z,101515.48
2019-02-26T10:53:40.835Z,101502.16
2019-02-26T10:56:44.856Z,101507.62
2019-02-26T10:59:46.616Z,101504.09
2019-02-26T11:02:50.951Z,101508.53
2019-02-26T11:05:52.511Z,101499.70
2019-02-26T11:08:58.718Z,101495.67
2019-02-26T11:12:00.814Z,101489.30
2019-02-26T11:15:09.364Z,101473.13
2019-02-26T11:18:12.317Z,101474.28
2019-02-26T11:21:15.213Z,101460.77
2019-02-26T11:24:17.265Z,101457.56
2019-02-26T11:27:19.392Z,101463.91
2019-02-26T11:30:25.839Z,101471.11
2019-02-26T11:33:27.501Z,101458.13
2019-02-26T11:36:31.282Z,101461.67
2019-02-26T11:39:33.338Z,101458.56
2019-02-26T11:42:35.546Z,101448.81
2019-02-26T11:45:39.531Z,101437.95
2019-02-26T11:48:41.354Z,101443.12
2019-02-26T11:51:43.592Z,101435.29
2019-02-26T11:54:45.654Z,101425.22
2019-02-26T11:57:49.737Z,101429.22
2019-02-26T12:00:53.414Z,101438.53
2019-02-26T12:03:56.185Z,101429.27
2019-02-26T12:07:01.770Z,101422.38
2019-02-26T12:10:14.530Z,101440.17
2019-02-26T12:13:17.086Z,101428.09
2019-02-26T12:16:20.315Z,101439.87
2019-02-26T12:19:23.122Z,101442.73
2019-02-26T12:22:27.862Z,101433.41
2019-02-26T12:25:29.925Z,101437.86
2019-02-26T12:28:34.678Z,101442.59
2019-02-26T12:31:36.957Z,101441.84
2019-02-26T12:34:41.219Z,101430.50
2019-02-26T12:37:43.555Z,101413.95
2019-02-26T12:40:47.193Z,101395.21
2019-02-26T12:43:49.445Z,101402.11
2019-02-26T12:46:53.622Z,101402.17
2019-02-26T12:49:56.217Z,101384.80
2019-02-26T12:52:58.772Z,101387.88
2019-02-26T12:56:02.593Z,101384.05
2019-02-26T12:59:07.121Z,101390.33
2019-02-26T13:02:12.198Z,101374.60
2019-02-26T13:05:14.108Z,101381.73
2019-02-26T13:08:19.773Z,101382.53
2019-02-26T13:11:24.125Z,101370.91
2019-02-26T13:14:24.455Z,101370.62
2019-02-26T13:17:28.726Z,101355.73
2019-02-26T13:20:30.341Z,101352.70
2019-02-26T13:23:32.214Z,101347.23
2019-02-26T13:26:36.315Z,101332.28
2019-02-26T13:29:42.583Z,101342.20
2019-02-26T13:32:55.290Z,101340.02
2019-02-26T13:35:50.697Z,101346.08
2019-02-26T13:38:49.824Z,101340.78
2019-02-26T13:41:58.589Z,101354.31
2019-02-26T13:44:55.566Z,101349.39
2019-02-26T13:48:01.169Z,101347.73
2019-02-26T13:51:01.389Z,101341.42
2019-02-26T13:54:03.281Z,101330.37
2019-02-26T13:57:05.147Z,101327.02
2019-02-26T14:00:10.550Z,101336.88
2019-02-26T14:03:12.500Z,101349.88
2019-02-26T14:06:14.632Z,101354.27
2019-02-26T14:09:16.651Z,101358.93
2019-02-26T14:12:18.588Z,101367.14
2019-02-26T14:15:25.490Z,101357.77
2019-02-26T14:18:27.590Z,101357.13
2019-02-26T14:21:29.526Z,101349.64
2019-02-26T14:24:31.749Z,101358.69
2019-02-26T14:27:33.721Z,101358.17
2019-02-26T14:30:35.953Z,101359.14
2019-02-26T14:33:37.872Z,101366.52
2019-02-26T14:36:39.809Z,101370.84
2019-02-26T14:39:41.877Z,101371.86
2019-02-26T14:42:43.838Z,101378.13
2019-02-26T14:45:45.800Z,101374.45
2019-02-26T14:48:47.803Z,101382.90
2019-02-26T14:51:49.748Z,101389.92
2019-02-26T14:54:51.707Z,101398.55
2019-02-26T14:57:53.631Z,101399.20
2019-02-26T15:00:57.937Z,101400.69
2019-02-26T15:03:59.420Z,101405.25
2019-02-26T15:07:01.804Z,101399.15
2019-02-26T15:10:07.150Z,101404.94
2019-02-26T15:13:09.112Z,101390.89
2019-02-26T15:16:11.003Z,101399.66
2019-02-26T15:19:14.032Z,101406.54
2019-02-26T15:22:15.887Z,101404.80
2019-02-26T15:25:23.198Z,101412.34
2019-02-26T15:28:25.154Z,101421.32
2019-02-26T15:31:27.516Z,101411.56
2019-02-26T15:34:29.484Z,101409.72
2019-02-26T15:37:31.443Z,101417.31
2019-02-26T15:40:33.393Z,101416.63
2019-02-26T15:43:35.385Z,101410.45
2019-02-26T15:46:37.340Z,101419.64
2019-02-26T15:49:39.421Z,101427.87
2019-02-26T15:52:42.537Z,101436.51
2019-02-26T15:55:44.437Z,101434.16
2019-02-26T15:58:46.359Z,101431.20
2019-02-26T16:01:48.355Z,101428.34
2019-02-26T16:04:50.433Z,101422.69
2019-02-26T16:07:53.141Z,101424.13
2019-02-26T16:10:55.684Z,101433.17
2019-02-26T16:13:57.555Z,101435.87
2019-02-26T16:16:59.520Z,101429.77
2019-02-26T16:20:01.439Z,101448.66
2019-02-26T16:23:04.772Z,101447.23
2019-02-26T16:26:08.056Z,101456.61
2019-02-26T16:29:11.800Z,101468.92
2019-02-26T16:32:22.558Z,101472.77
2019-02-26T16:35:25.738Z,101474.37
2019-02-26T16:38:27.908Z,101473.48
2019-02-26T16:41:30.161Z,101484.66
2019-02-26T16:44:32.244Z,101488.35
2019-02-26T16:47:38.755Z,101479.56
2019-02-26T16:50:40.633Z,101490.03
2019-02-26T16:53:42.575Z,101482.08
2019-02-26T16:56:44.949Z,101487.88
2019-02-26T16:59:47.165Z,101485.79
2019-02-26T17:02:49.449Z,101497.76
2019-02-26T17:05:51.350Z,101484.06
2019-02-26T17:08:54.142Z,101486.28
2019-02-26T17:11:56.133Z,101499.08
2019-02-26T17:14:58.556Z,101505.48
2019-02-26T17:18:00.877Z,101510.70
2019-02-26T17:21:02.797Z,101517.64
2019-02-26T17:24:04.735Z,101509.43
2019-02-26T17:27:08.330Z,101501.36
2019-02-26T17:30:16.950Z,101498.17
2019-02-26T17:33:22.831Z,101508.66
2019-02-26T17:36:24.846Z,101516.17
2019-02-26T17:39:28.740Z,101506.97
2019-02-26T17:42:32.296Z,101505.14
2019-02-26T17:45:37.317Z,101497.55
2019-02-26T17:48:43.569Z,101500.41
2019-02-26T17:51:44.618Z,101506.66
2019-02-26T17:54:49.732Z,101506.78
2019-02-26T17:57:51.958Z,101503.30
2019-02-26T18:01:00.665Z,101502.50
2019-02-26T18:04:05.409Z,101512.44
2019-02-26T18:07:11.327Z,101515.08
2019-02-26T18:10:22.573Z,101521.74
2019-02-26T18:13:25.882Z,101524.19
2019-02-26T18:16:31.767Z,101515.27
2019-02-26T18:19:41.621Z,101517.86
2019-02-26T18:22:44.406Z,101518.95
2019-02-26T18:25:46.349Z,101531.31
2019-02-26T18:28:50.900Z,101533.03
2019-02-26T18:31:54.621Z,101529.67
2019-02-26T18:34:57.921Z,101538.42
2019-02-26T18:38:00.878Z,101547.30
2019-02-26T18:41:05.272Z,101540.05
2019-02-26T18:44:09.613Z,101547.55
2019-02-26T18:47:11.959Z,101547.59
2019-02-26T18:50:14.282Z,101547.08
2019-02-26T18:53:16.267Z,101545.45
2019-02-26T18:56:18.176Z,101552.18
2019-02-26T18:59:21.633Z,101560.48
2019-02-26T19:02:23.951Z,101555.69
2019-02-26T19:05:27.943Z,101551.69
2019-02-26T19:08:31.084Z,101554.45
2019-02-26T19:11:33.042Z,101555.42
2019-02-26T19:14:41.863Z,101557.72
2019-02-26T19:17:44.482Z,101552.19
2019-02-26T19:20:49.110Z,101551.56
2019-02-26T19:23:53.594Z,101555.78
2019-02-26T19:26:58.760Z,101555.81
2019-02-26T19:30:04.202Z,101564.63
2019-02-26T19:33:09.907Z,101555.59
2019-02-26T19:36:13.910Z,101556.33
2019-02-26T19:39:15.807Z,101564.61
2019-02-26T19:42:21.106Z,101570.72
2019-02-26T19:45:24.620Z,101572.28
2019-02-26T19:48:30.392Z,101567.98
2019-02-26T19:51:30.503Z,101561.81
2019-02-26T19:54:32.711Z,101561.40
2019-02-26T19:57:35.369Z,101559.09
2019-02-26T20:00:37.231Z,101560.02
2019-02-26T20:03:40.131Z,101577.97
2019-02-26T20:06:46.182Z,101577.14
2019-02-26T20:09:52.347Z,101569.69
2019-02-26T20:13:00.550Z,101569.27
2019-02-26T20:16:05.096Z,101577.77
2019-02-26T20:19:10.913Z,101567.17
2019-02-26T20:22:13.433Z,101553.33
2019-02-26T20:25:22.776Z,101557.50
2019-02-26T20:28:27.801Z,101558.25
2019-02-26T20:31:29.763Z,101563.48
2019-02-26T20:34:32.466Z,101569.77
2019-02-26T20:37:38.347Z,101566.71
2019-02-26T20:40:40.229Z,101564.59
2019-02-26T20:43:42.252Z,101554.91
2019-02-26T20:46:44.964Z,101547.14
2019-02-26T20:49:48.805Z,101559.63
2019-02-26T20:52:50.733Z,101564.00
2019-02-26T20:55:57.457Z,101558.97
2019-02-26T20:58:57.563Z,101568.50
2019-02-26T21:01:59.500Z,101565.44
2019-02-26T21:05:06.379Z,101565.23
2019-02-26T21:08:09.793Z,101570.56
2019-02-26T21:11:14.404Z,101574.12
2019-02-26T21:14:16.684Z,101565.65
2019-02-26T21:17:19.010Z,101569.39
2019-02-26T21:20:23.732Z,101579.14
2019-02-26T21:23:27.820Z,101577.14
2019-02-26T21:26:30.290Z,101577.55
2019-02-26T21:29:33.990Z,101574.06
2019-02-26T21:32:36.065Z,101577.91
2019-02-26T21:35:38.042Z,101587.84
2019-02-26T21:38:41.605Z,101592.85
2019-02-26T21:41:43.554Z,101588.22
2019-02-26T21:44:46.677Z,101584.02
2019-02-26T21:47:48.576Z,101589.46
2019-02-26T21:50:54.473Z,101591.88
2019-02-26T21:53:54.352Z,101601.70
2019-02-26T21:56:56.234Z,101613.64
2019-02-26T21:59:58.237Z,101603.66
2019-02-26T22:03:00.140Z,101597.59
2019-02-26T22:06:05.371Z,101600.84
2019-02-26T22:09:05.955Z,101602.91
2019-02-26T22:12:09.767Z,101596.30
2019-02-26T22:15:13.329Z,101592.44
2019-02-26T22:18:15.192Z,101601.31
2019-02-26T22:21:19.062Z,101598.99
2019-02-26T22:24:21.319Z,101595.00
2019-02-26T22:27:23.223Z,101590.58
2019-02-26T22:30:25.165Z,101586.91
2019-02-26T22:33:27.112Z,101593.05
2019-02-26T22:36:30.795Z,101585.64
2019-02-26T22:39:33.015Z,101589.37
2019-02-26T22:42:34.945Z,101596.58
2019-02-26T22:45:36.827Z,101591.88
2019-02-26T22:48:38.720Z,101597.19
2019-02-26T22:51:40.619Z,101598.08
2019-02-26T22:54:43.468Z,101597.13
2019-02-26T22:57:45.727Z,101606.02
2019-02-26T23:00:55.810Z,101601.20
2019-02-26T23:03:59.480Z,101597.13
2019-02-26T23:07:04.570Z,101604.27
2019-02-26T23:10:05.580Z,101609.05
2019-02-26T23:13:09.544Z,101614.36
2019-02-26T23:16:11.579Z,101623.63
2019-02-26T23:19:14.274Z,101624.33
2019-02-26T23:22:17.380Z,101619.81
2019-02-26T23:25:19.325Z,101618.41
2019-02-26T23:28:21.871Z,101618.45
2019-02-26T23:31:24.660Z,101621.91
2019-02-26T23:34:26.543Z,101622.44
2019-02-26T23:37:29.064Z,101623.84
2019-02-26T23:40:31.058Z,101628.31
2019-02-26T23:43:32.972Z,101620.55
2019-02-26T23:46:35.599Z,101625.67
2019-02-26T23:49:37.573Z,101618.41
2019-02-26T23:52:39.544Z,101614.94
2019-02-26T23:55:46.385Z,101611.43
2019-02-26T23:58:45.328Z,101607.56
